createdAt,value
2018-04-14T00:00:02.514Z,8.30
2018-04-14T00:02:31.688Z,7.87
2018-04-14T00:05:00.790Z,7.43
2018-04-14T00:07:30.716Z,8.17
2018-04-14T00:10:00.589Z,7.70
2018-04-14T00:12:29.870Z,8.63
2018-04-14T00:14:58.976Z,8.83
2018-04-14T00:17:28.050Z,8.47
2018-04-14T00:19:57.156Z,8.90
2018-04-14T00:22:26.236Z,9.83
2018-04-14T00:24:55.372Z,9.13
2018-04-14T00:27:24.453Z,9.53
2018-04-14T00:29:53.532Z,8.97
2018-04-14T00:32:23.441Z,9.10
2018-04-14T00:34:52.515Z,9.37
2018-04-14T00:37:21.600Z,9.77
2018-04-14T00:39:50.705Z,10.10
2018-04-14T00:42:19.820Z,10.57
2018-04-14T00:44:48.935Z,10.33
2018-04-14T00:47:18.090Z,11.30
2018-04-14T00:49:47.170Z,12.10
2018-04-14T00:52:16.254Z,11.67
2018-04-14T00:54:45.439Z,12.00
2018-04-14T00:57:15.325Z,11.90
2018-04-14T00:59:44.443Z,11.87
2018-04-14T01:02:13.565Z,10.63
2018-04-14T01:04:42.794Z,11.10
2018-04-14T01:07:11.881Z,11.90
2018-04-14T01:09:40.959Z,11.30
2018-04-14T01:12:10.066Z,13.60
2018-04-14T01:14:39.195Z,13.27
2018-04-14T01:17:08.531Z,14.23
2018-04-14T01:19:37.644Z,13.70
2018-04-14T01:22:06.753Z,14.03
2018-04-14T01:24:36.228Z,14.17
2018-04-14T01:27:05.344Z,13.57
2018-04-14T01:29:34.460Z,15.50
2018-04-14T01:32:03.638Z,14.57
2018-04-14T01:34:32.771Z,13.90
2018-04-14T01:37:01.850Z,15.17
2018-04-14T01:39:30.966Z,15.23
2018-04-14T01:42:00.815Z,15.37
2018-04-14T01:44:29.928Z,17.30
2018-04-14T01:46:59.051Z,15.60
2018-04-14T01:49:28.131Z,14.63
2018-04-14T01:51:58.836Z,17.17
2018-04-14T01:54:27.944Z,18.03
2018-04-14T01:56:57.069Z,16.33
2018-04-14T01:59:26.153Z,16.77
2018-04-14T02:01:55.242Z,16.33
2018-04-14T02:04:24.356Z,16.60
2018-04-14T02:06:53.435Z,17.17
2018-04-14T02:09:23.308Z,17.07
2018-04-14T02:11:52.431Z,17.83
2018-04-14T02:14:21.520Z,17.53
2018-04-14T02:19:50.261Z,17.90
2018-04-14T02:22:19.386Z,20.60
2018-04-14T02:24:48.570Z,18.33
2018-04-14T02:27:17.749Z,18.80
2018-04-14T02:29:46.839Z,19.77
2018-04-14T02:32:15.927Z,17.33
2018-04-14T02:34:45.071Z,19.27
2018-04-14T02:37:14.158Z,19.00
2018-04-14T02:39:43.308Z,19.40
2018-04-14T02:42:12.411Z,21.42
2018-04-14T02:44:41.521Z,20.63
2018-04-14T02:47:10.636Z,22.07
2018-04-14T02:49:39.808Z,22.37
2018-04-14T02:52:08.986Z,22.13
2018-04-14T02:54:38.858Z,21.33
2018-04-14T02:57:08.024Z,22.00
2018-04-14T02:59:37.134Z,23.03
2018-04-14T03:02:06.240Z,22.63
2018-04-14T03:04:35.367Z,24.27
2018-04-14T03:07:04.481Z,23.97
2018-04-14T03:09:33.563Z,24.10
2018-04-14T03:12:03.410Z,25.40
2018-04-14T03:14:32.487Z,25.30
2018-04-14T03:17:01.695Z,24.87
2018-04-14T03:19:31.561Z,26.97
2018-04-14T03:22:00.639Z,26.07
2018-04-14T03:24:30.520Z,25.70
2018-04-14T03:26:59.676Z,25.50
2018-04-14T03:29:28.839Z,25.90
2018-04-14T03:31:58.455Z,26.37
2018-04-14T03:34:27.565Z,27.60
2018-04-14T03:36:56.742Z,28.30
2018-04-14T03:39:26.591Z,27.33
2018-04-14T03:41:55.712Z,27.50
2018-04-14T03:44:24.790Z,27.10
2018-04-14T03:46:54.699Z,29.20
2018-04-14T03:49:23.813Z,27.60
2018-04-14T03:51:52.898Z,25.43
2018-04-14T03:54:22.015Z,22.70
2018-04-14T03:56:51.896Z,22.07
2018-04-14T03:59:21.011Z,18.60
2018-04-14T04:01:50.131Z,20.10
2018-04-14T04:04:19.215Z,20.13
2018-04-14T04:06:49.063Z,21.27
2018-04-14T04:09:18.136Z,23.30
2018-04-14T04:11:47.248Z,23.33
2018-04-14T04:14:16.365Z,24.50
2018-04-14T04:16:46.324Z,24.30
2018-04-14T04:22:46.054Z,22.87
2018-04-14T04:28:23.902Z,19.27
2018-04-14T04:30:53.792Z,16.07
2018-04-14T04:33:22.886Z,18.02
2018-04-14T04:35:52.003Z,16.65
2018-04-14T04:38:21.893Z,16.73
2018-04-14T04:40:51.896Z,18.25
2018-04-14T04:43:21.807Z,19.77
2018-04-14T04:45:50.929Z,22.53
2018-04-14T04:48:20.023Z,25.10
2018-04-14T04:50:49.135Z,24.90
2018-04-14T04:53:18.224Z,28.48
2018-04-14T04:55:47.360Z,30.70
2018-04-14T04:58:17.331Z,31.00
2018-04-14T05:00:47.302Z,34.65
2018-04-14T05:03:17.181Z,35.13
2018-04-14T05:05:46.289Z,37.08
2018-04-14T05:08:16.165Z,41.27
2018-04-14T05:10:45.604Z,42.50
2018-04-14T05:13:14.728Z,39.83
2018-04-14T05:15:43.848Z,40.47
2018-04-14T05:18:12.975Z,40.37
2018-04-14T05:20:42.059Z,41.57
2018-04-14T05:23:11.947Z,39.90
2018-04-14T05:25:41.057Z,44.80
2018-04-14T05:28:10.191Z,40.63
2018-04-14T05:30:39.273Z,40.03
2018-04-14T05:33:09.183Z,40.37
2018-04-14T05:35:38.312Z,42.90
2018-04-14T05:38:07.407Z,40.10
2018-04-14T05:40:37.360Z,39.97
2018-04-14T05:43:06.443Z,37.35
2018-04-14T05:45:35.587Z,41.47
2018-04-14T05:48:04.665Z,44.45
2018-04-14T05:50:33.742Z,37.30
2018-04-14T05:53:02.814Z,34.73
2018-04-14T05:55:31.923Z,32.97
2018-04-14T05:58:01.053Z,33.53
2018-04-14T06:00:30.134Z,32.03
2018-04-14T06:02:59.975Z,34.60
2018-04-14T06:05:29.059Z,33.43
2018-04-14T06:07:59.013Z,34.50
2018-04-14T06:10:28.143Z,34.63
2018-04-14T06:12:57.236Z,34.30
2018-04-14T06:15:26.356Z,34.00
2018-04-14T06:17:55.465Z,33.13
2018-04-14T06:20:24.547Z,35.10
2018-04-14T06:22:54.485Z,34.73
2018-04-14T06:25:24.517Z,35.00
2018-04-14T06:27:53.664Z,35.90
2018-04-14T06:30:22.759Z,36.73
2018-04-14T06:32:51.836Z,36.90
2018-04-14T06:35:21.768Z,29.23
2018-04-14T06:37:51.652Z,32.33
2018-04-14T06:40:21.121Z,32.37
2018-04-14T06:42:50.967Z,33.00
2018-04-14T06:45:20.070Z,35.37
2018-04-14T06:47:49.192Z,36.13
2018-04-14T06:50:18.309Z,36.00
2018-04-14T06:52:47.396Z,37.80
2018-04-14T06:55:17.268Z,35.67
2018-04-14T06:57:46.390Z,38.30
2018-04-14T07:00:15.609Z,39.90
2018-04-14T07:02:44.720Z,39.07
2018-04-14T07:05:13.892Z,39.30
2018-04-14T07:07:43.003Z,40.27
2018-04-14T07:10:12.156Z,42.00
2018-04-14T07:12:41.268Z,46.07
2018-04-14T07:15:10.473Z,46.53
2018-04-14T07:17:39.629Z,47.33
2018-04-14T07:20:08.758Z,46.90
2018-04-14T07:22:37.897Z,49.80
2018-04-14T07:25:07.030Z,48.90
2018-04-14T07:27:36.112Z,49.80
2018-04-14T07:30:05.236Z,49.03
2018-04-14T07:32:34.379Z,53.67
2018-04-14T07:35:04.236Z,52.63
2018-04-14T07:37:33.377Z,55.30
2018-04-14T07:40:02.502Z,54.13
2018-04-14T07:42:31.632Z,58.83
2018-04-14T07:45:01.569Z,56.17
2018-04-14T07:47:31.504Z,54.90
2018-04-14T07:50:01.364Z,59.50
2018-04-14T07:52:30.478Z,59.00
2018-04-14T07:54:59.575Z,60.30
2018-04-14T07:57:28.673Z,64.20
2018-04-14T07:59:57.802Z,62.47
2018-04-14T08:02:26.923Z,56.90
2018-04-14T08:05:00.446Z,54.93
2018-04-14T08:07:29.616Z,56.37
2018-04-14T08:09:58.767Z,53.97
2018-04-14T08:12:27.910Z,54.40
2018-04-14T08:14:57.023Z,52.97
2018-04-14T08:17:26.160Z,55.83
2018-04-14T08:19:55.280Z,56.80
2018-04-14T08:22:24.440Z,53.53
2018-04-14T08:24:53.560Z,54.37
2018-04-14T08:27:22.680Z,56.43
2018-04-14T08:29:52.538Z,55.00
2018-04-14T08:32:21.721Z,53.77
2018-04-14T08:34:51.604Z,51.17
2018-04-14T08:37:20.719Z,55.75
2018-04-14T08:39:49.825Z,52.33
2018-04-14T08:42:18.942Z,49.77
2018-04-14T08:44:48.047Z,48.57
2018-04-14T08:47:17.173Z,48.57
2018-04-14T08:49:46.282Z,49.37
2018-04-14T08:52:15.371Z,44.50
2018-04-14T08:54:44.511Z,46.17
2018-04-14T08:57:13.598Z,43.03
2018-04-14T08:59:42.790Z,47.20
2018-04-14T09:02:11.867Z,45.23
2018-04-14T09:04:41.710Z,43.40
2018-04-14T09:07:11.584Z,45.90
2018-04-14T09:09:40.797Z,44.07
2018-04-14T09:12:09.926Z,43.03
2018-04-14T09:14:39.003Z,40.93
2018-04-14T09:17:08.135Z,40.43
2018-04-14T09:19:37.236Z,38.30
2018-04-14T09:22:06.377Z,39.07
2018-04-14T09:24:35.616Z,36.57
2018-04-14T09:27:05.533Z,36.93
2018-04-14T09:29:35.408Z,37.23
2018-04-14T09:32:04.494Z,34.47
2018-04-14T09:34:33.628Z,35.20
2018-04-14T09:37:02.724Z,37.20
2018-04-14T09:39:31.889Z,34.47
2018-04-14T09:42:00.991Z,32.63
2018-04-14T09:44:30.082Z,31.53
2018-04-14T09:46:59.203Z,31.03
2018-04-14T09:49:29.210Z,33.63
2018-04-14T09:51:58.368Z,30.30
2018-04-14T09:54:27.457Z,37.40
2018-04-14T09:56:56.648Z,29.60
2018-04-14T09:59:25.752Z,30.67
2018-04-14T10:01:54.822Z,29.83
2018-04-14T10:04:23.925Z,28.17
2018-04-14T10:06:53.004Z,28.20
2018-04-14T10:09:22.906Z,27.30
2018-04-14T10:11:52.093Z,27.17
2018-04-14T10:14:21.974Z,25.00
2018-04-14T10:16:51.861Z,25.50
2018-04-14T10:19:21.715Z,25.23
2018-04-14T10:21:50.783Z,23.57
2018-04-14T10:24:19.855Z,23.50
2018-04-14T10:26:48.964Z,23.93
2018-04-14T10:29:18.079Z,24.63
2018-04-14T10:31:47.162Z,23.77
2018-04-14T10:34:16.234Z,23.20
2018-04-14T10:36:46.074Z,25.83
2018-04-14T10:39:16.280Z,24.33
2018-04-14T10:41:45.375Z,23.60
2018-04-14T10:44:14.458Z,23.20
2018-04-14T10:46:43.591Z,23.23
2018-04-14T10:49:14.216Z,23.00
2018-04-14T10:51:43.347Z,23.60
2018-04-14T10:54:12.452Z,23.43
2018-04-14T10:56:41.534Z,22.17
2018-04-14T10:59:10.612Z,23.97
2018-04-14T11:01:39.687Z,24.07
2018-04-14T11:04:08.836Z,23.30
2018-04-14T11:06:38.713Z,23.40
2018-04-14T11:09:07.857Z,22.10
2018-04-14T11:11:36.971Z,22.03
2018-04-14T11:14:06.079Z,22.53
2018-04-14T11:16:35.266Z,22.87
2018-04-14T11:19:04.347Z,22.90
2018-04-14T11:21:33.465Z,23.30
2018-04-14T11:24:02.548Z,23.67
2018-04-14T11:26:32.390Z,24.03
2018-04-14T11:29:01.463Z,23.50
2018-04-14T11:31:30.608Z,25.07
2018-04-14T11:33:59.711Z,21.83
2018-04-14T11:36:29.589Z,22.73
2018-04-14T11:38:58.695Z,22.90
2018-04-14T11:41:27.862Z,23.60
2018-04-14T11:43:57.778Z,23.23
2018-04-14T11:46:27.639Z,22.30
2018-04-14T11:48:56.746Z,22.87
2018-04-14T11:51:25.828Z,22.90
2018-04-14T11:53:55.700Z,22.70
2018-04-14T11:56:24.800Z,22.13
2018-04-14T11:58:53.872Z,22.90
2018-04-14T12:01:23.011Z,22.00
2018-04-14T12:03:52.120Z,21.50
2018-04-14T12:06:21.271Z,22.40
2018-04-14T12:08:50.356Z,20.13
2018-04-14T12:11:19.488Z,18.43
2018-04-14T12:13:48.598Z,20.20
2018-04-14T12:16:17.723Z,19.03
2018-04-14T12:18:46.796Z,17.60
2018-04-14T12:21:15.874Z,18.93
2018-04-14T12:23:45.775Z,20.03
2018-04-14T12:26:14.921Z,21.53
2018-04-14T12:28:44.836Z,22.77
2018-04-14T12:31:14.683Z,22.03
2018-04-14T12:33:43.758Z,23.40
2018-04-14T12:36:12.832Z,23.57
2018-04-14T12:38:41.998Z,24.17
2018-04-14T12:41:11.841Z,27.07
2018-04-14T12:43:41.717Z,30.00
2018-04-14T12:46:10.874Z,31.67
2018-04-14T12:48:40.754Z,33.20
2018-04-14T12:51:09.836Z,34.47
2018-04-14T12:53:38.916Z,33.97
2018-04-14T12:56:09.121Z,32.43
2018-04-14T12:58:38.212Z,26.30
2018-04-14T13:01:07.295Z,25.20
2018-04-14T13:03:36.372Z,28.27
2018-04-14T13:06:06.281Z,30.57
2018-04-14T13:08:35.428Z,27.47
2018-04-14T13:11:04.511Z,28.77
2018-04-14T13:13:33.593Z,28.80
2018-04-14T13:16:02.713Z,31.20
2018-04-14T13:18:31.828Z,28.37
2018-04-14T13:21:00.985Z,29.90
2018-04-14T13:23:30.111Z,30.37
2018-04-14T13:25:59.229Z,32.13
2018-04-14T13:28:28.302Z,31.60
2018-04-14T13:30:58.215Z,31.27
2018-04-14T13:33:27.328Z,27.60
2018-04-14T13:35:56.436Z,29.17
2018-04-14T13:38:25.553Z,29.30
2018-04-14T13:40:54.668Z,28.97
2018-04-14T13:43:24.552Z,30.13
2018-04-14T13:45:53.660Z,27.33
2018-04-14T13:48:23.205Z,27.47
2018-04-14T13:50:52.319Z,27.93
2018-04-14T13:53:21.473Z,30.87
2018-04-14T13:55:50.591Z,26.93
2018-04-14T13:58:19.810Z,27.27
2018-04-14T14:00:48.920Z,26.27
2018-04-14T14:03:18.011Z,27.23
2018-04-14T14:05:47.884Z,27.13
2018-04-14T14:08:16.988Z,26.00
2018-04-14T14:10:46.904Z,24.43
2018-04-14T14:13:16.018Z,26.80
2018-04-14T14:15:45.095Z,30.90
2018-04-14T14:18:15.038Z,27.70
2018-04-14T14:20:44.154Z,23.70
2018-04-14T14:23:13.231Z,25.60
2018-04-14T14:25:42.307Z,26.27
2018-04-14T14:28:11.390Z,24.40
2018-04-14T14:30:40.463Z,26.30
2018-04-14T14:33:09.533Z,27.17
2018-04-14T14:35:38.603Z,25.43
2018-04-14T14:38:07.770Z,26.07
2018-04-14T14:40:36.846Z,26.77
2018-04-14T14:43:05.981Z,25.20
2018-04-14T14:45:35.096Z,26.63
2018-04-14T14:48:04.326Z,26.20
2018-04-14T14:50:33.434Z,28.10
2018-04-14T14:53:02.592Z,26.07
2018-04-14T14:55:31.704Z,27.70
2018-04-14T14:58:00.824Z,27.80
2018-04-14T15:00:29.934Z,27.30
2018-04-14T15:02:59.049Z,25.37
2018-04-14T15:05:28.132Z,24.40
2018-04-14T15:07:57.969Z,26.00
2018-04-14T15:10:27.067Z,25.83
2018-04-14T15:12:56.936Z,23.00
2018-04-14T15:15:26.812Z,23.20
2018-04-14T15:17:56.684Z,21.40
2018-04-14T15:20:25.826Z,20.70
2018-04-14T15:22:54.963Z,19.90
2018-04-14T15:25:24.849Z,20.00
2018-04-14T15:27:54.045Z,19.80
2018-04-14T15:30:23.193Z,24.00
2018-04-14T15:32:52.272Z,26.20
2018-04-14T15:35:21.349Z,32.10
2018-04-14T15:37:50.423Z,30.40
2018-04-14T15:40:19.549Z,31.00
2018-04-14T15:42:48.642Z,32.63
2018-04-14T15:45:17.723Z,33.03
2018-04-14T15:47:46.802Z,34.20
2018-04-14T15:50:15.908Z,31.20
2018-04-14T15:52:44.979Z,32.23
2018-04-14T15:55:14.092Z,32.63
2018-04-14T15:57:43.201Z,32.77
2018-04-14T16:00:12.319Z,30.50
2018-04-14T16:02:41.420Z,32.07
2018-04-14T16:05:10.499Z,31.80
2018-04-14T16:07:39.603Z,29.50
2018-04-14T16:10:08.716Z,32.00
2018-04-14T16:12:37.835Z,29.90
2018-04-14T16:15:06.940Z,30.33
2018-04-14T16:17:36.045Z,29.27
2018-04-14T16:20:05.163Z,29.73
2018-04-14T16:22:34.234Z,28.77
2018-04-14T16:25:04.118Z,29.10
2018-04-14T16:27:33.232Z,29.50
2018-04-14T16:30:02.331Z,30.20
2018-04-14T16:32:31.407Z,28.57
2018-04-14T16:35:00.480Z,27.63
2018-04-14T16:37:29.550Z,28.67
2018-04-14T16:39:59.420Z,27.70
2018-04-14T16:42:28.560Z,28.33
2018-04-14T16:44:57.668Z,28.87
2018-04-14T16:47:26.746Z,29.90
2018-04-14T16:49:55.855Z,28.63
2018-04-14T16:52:24.992Z,29.80
2018-04-14T16:54:54.909Z,27.87
2018-04-14T16:57:24.751Z,27.83
2018-04-14T16:59:54.607Z,25.93
2018-04-14T17:02:23.782Z,28.87
2018-04-14T17:04:53.754Z,49.53
2018-04-14T17:07:22.831Z,38.50
2018-04-14T17:09:52.704Z,30.57
2018-04-14T17:12:21.844Z,32.87
2018-04-14T17:14:50.997Z,30.97
2018-04-14T17:17:20.078Z,33.97
2018-04-14T17:19:49.189Z,36.40
2018-04-14T17:22:18.270Z,37.47
2018-04-14T17:24:47.351Z,32.97
2018-04-14T17:27:16.471Z,34.30
2018-04-14T17:29:45.560Z,32.37
2018-04-14T17:32:14.664Z,32.60
2018-04-14T17:34:43.772Z,29.17
2018-04-14T17:37:13.068Z,30.13
2018-04-14T17:39:42.981Z,32.23
2018-04-14T17:42:12.056Z,31.03
2018-04-14T17:44:41.301Z,31.70
2018-04-14T17:47:10.468Z,33.43
2018-04-14T17:49:39.550Z,31.17
2018-04-14T17:52:09.480Z,30.43
2018-04-14T17:54:39.358Z,31.87
2018-04-14T17:57:08.504Z,32.33
2018-04-14T17:59:38.354Z,32.70
2018-04-14T18:02:07.434Z,31.00
2018-04-14T18:04:36.586Z,31.37
2018-04-14T18:07:05.663Z,33.70
2018-04-14T18:09:35.705Z,35.73
2018-04-14T18:12:05.588Z,36.97
2018-04-14T18:14:34.733Z,35.17
2018-04-14T18:17:04.693Z,36.27
2018-04-14T18:19:33.817Z,36.37
2018-04-14T18:22:02.939Z,37.57
2018-04-14T18:24:32.112Z,35.30
2018-04-14T18:27:03.111Z,35.80
2018-04-14T18:29:32.192Z,36.63
2018-04-14T18:32:01.301Z,41.80
2018-04-14T18:34:30.434Z,38.67
2018-04-14T18:36:59.553Z,38.47
2018-04-14T18:39:28.658Z,46.40
2018-04-14T18:41:58.526Z,42.67
2018-04-14T18:44:27.672Z,40.60
2018-04-14T18:46:56.777Z,40.00
2018-04-14T18:49:25.865Z,44.93
2018-04-14T18:51:54.971Z,47.10
2018-04-14T18:54:24.133Z,40.50
2018-04-14T18:56:54.143Z,43.70
2018-04-14T18:59:23.262Z,40.23
2018-04-14T19:01:52.348Z,44.20
2018-04-14T19:04:22.221Z,54.80
2018-04-14T19:06:51.373Z,62.23
2018-04-14T19:09:21.223Z,60.53
2018-04-14T19:11:50.364Z,56.97
2018-04-14T19:14:19.455Z,64.73
2018-04-14T19:16:48.580Z,66.70
2018-04-14T19:19:17.699Z,87.57
2018-04-14T19:21:46.928Z,89.40
2018-04-14T19:24:16.805Z,87.00
2018-04-14T19:26:46.099Z,75.90
2018-04-14T19:29:15.185Z,73.60
2018-04-14T19:31:44.296Z,68.43
2018-04-14T19:34:13.402Z,66.80
2018-04-14T19:36:42.518Z,80.50
2018-04-14T19:39:11.682Z,71.33
2018-04-14T19:41:40.763Z,73.57
2018-04-14T19:44:09.871Z,82.70
2018-04-14T19:46:39.016Z,87.43
2018-04-14T19:49:08.227Z,111.80
2018-04-14T19:51:37.355Z,98.17
2018-04-14T19:54:06.705Z,87.07
2018-04-14T19:56:35.822Z,78.70
2018-04-14T19:59:04.906Z,84.77
2018-04-14T20:01:34.063Z,82.00
2018-04-14T20:04:03.951Z,78.30
2018-04-14T20:06:33.070Z,72.50
2018-04-14T20:09:02.161Z,69.97
2018-04-14T20:11:31.442Z,69.67
2018-04-14T20:14:00.561Z,72.83
2018-04-14T20:16:29.677Z,69.73
2018-04-14T20:18:58.861Z,71.87
2018-04-14T20:21:27.972Z,77.37
2018-04-14T20:23:57.852Z,71.00
2018-04-14T20:26:26.970Z,71.70
2018-04-14T20:28:56.167Z,78.23
2018-04-14T20:31:25.260Z,67.30
2018-04-14T20:33:54.376Z,69.70
2018-04-14T20:36:23.549Z,64.37
2018-04-14T20:38:53.430Z,68.80
2018-04-14T20:41:22.556Z,80.10
2018-04-14T20:43:51.657Z,84.23
2018-04-14T20:46:20.785Z,77.00
2018-04-14T20:48:49.944Z,68.13
2018-04-14T20:51:19.791Z,70.53
2018-04-14T20:53:48.877Z,69.90
2018-04-14T20:56:18.761Z,69.50
2018-04-14T20:58:47.940Z,65.77
2018-04-14T21:01:17.028Z,65.60
2018-04-14T21:03:46.945Z,64.63
2018-04-14T21:06:16.853Z,69.07
2018-04-14T21:08:45.972Z,70.07
2018-04-14T21:11:15.092Z,69.33
2018-04-14T21:13:45.171Z,68.43
2018-04-14T21:16:14.293Z,68.07
2018-04-14T21:18:43.440Z,63.33
2018-04-14T21:21:12.558Z,67.13
2018-04-14T21:23:42.497Z,68.77
2018-04-14T21:26:12.380Z,67.40
2018-04-14T21:28:41.569Z,69.87
2018-04-14T21:31:10.723Z,71.83
2018-04-14T21:33:39.850Z,72.43
2018-04-14T21:36:09.732Z,70.00
2018-04-14T21:38:38.888Z,72.93
2018-04-14T21:41:08.749Z,78.00
2018-04-14T21:43:37.835Z,72.23
2018-04-14T21:46:07.695Z,71.00
2018-04-14T21:48:36.776Z,70.10
2018-04-14T21:51:06.623Z,68.37
2018-04-14T21:53:35.842Z,64.90
2018-04-14T21:56:04.974Z,66.80
2018-04-14T21:58:34.135Z,65.17
2018-04-14T22:01:04.042Z,65.57
2018-04-14T22:03:33.160Z,65.40
2018-04-14T22:06:02.291Z,63.93
2018-04-14T22:08:32.172Z,68.47
2018-04-14T22:11:02.061Z,65.43
2018-04-14T22:13:31.364Z,67.50
2018-04-14T22:16:01.250Z,66.67
2018-04-14T22:18:30.346Z,69.50
2018-04-14T22:20:59.461Z,65.27
2018-04-14T22:23:28.559Z,65.07
2018-04-14T22:25:57.739Z,67.70
2018-04-14T22:28:26.868Z,66.53
2018-04-14T22:30:55.985Z,68.40
2018-04-14T22:33:25.075Z,69.43
2018-04-14T22:35:54.160Z,68.77
2018-04-14T22:38:24.196Z,70.25
2018-04-14T22:40:54.066Z,71.60
2018-04-14T22:43:23.189Z,69.57
2018-04-14T22:45:52.322Z,75.00
2018-04-14T22:48:21.460Z,65.75
2018-04-14T22:50:51.317Z,68.60
2018-04-14T22:53:20.406Z,64.90
2018-04-14T22:55:50.350Z,67.90
2018-04-14T22:58:19.443Z,65.32
2018-04-14T23:00:49.333Z,68.25
2018-04-14T23:03:18.432Z,65.57
2018-04-14T23:05:47.560Z,67.78
2018-04-14T23:08:16.683Z,68.40
2018-04-14T23:10:45.780Z,71.28
2018-04-14T23:13:14.907Z,67.72
2018-04-14T23:15:44.003Z,66.50
2018-04-14T23:18:13.086Z,70.50
2018-04-14T23:20:42.208Z,63.70
2018-04-14T23:23:11.296Z,66.60
2018-04-14T23:25:40.418Z,65.90
2018-04-14T23:28:09.520Z,66.60
2018-04-14T23:30:38.608Z,71.15
2018-04-14T23:33:07.812Z,70.53
2018-04-14T23:35:36.902Z,81.15
2018-04-14T23:38:06.794Z,79.55
2018-04-14T23:40:35.916Z,85.20
2018-04-14T23:43:05.075Z,83.15
2018-04-14T23:45:34.193Z,81.85
2018-04-14T23:48:03.284Z,78.03
2018-04-14T23:50:33.165Z,79.78
2018-04-14T23:53:02.294Z,81.65
2018-04-14T23:55:31.449Z,87.05
2018-04-14T23:58:00.627Z,82.03
